Skip Navigation Links
NOAA logo - Click to go to the NOAA homepage
NOAA's National Weather Service
Alaska Aviation Weather Unit
  NWS logo - Click to go to the NWS homepage
Left Navbar Graphic     17 AKDT = 01 GMT

   
NOAA is celebrating 200 years of science, service, and stewardship. Visit the NOAA 200th celebration Web site to learn more.
USA.gov is the U.S. Government's official Web portal to all Federal, state and local government Web resources and services.
Facebook
NWS on Facebook

Important Change Regarding the AAWU Web Presence

 

Over the last several months, the AAWU has been working to navigate its webpages to a nationally supported server. Security, as well as other needs, have necessitated the change.  We have been given an extension for the site changeover while we diligently work at addressing feedback received. As of July 14, 2017, aawu.arh.noaa.gov will be discontinued. The new AAWU web address is weather.gov/aawu. It is now live and will run in-parallel with the old site until it is discontinued on July 14, 2017. Please continue to send any feedback or questions regarding the new webpages to nws.ar.aawu.webauthors@noaa.gov.  Thank you for your patience during this time of transition.
AAWU Home :: Display TAF Add Bookmark
TAF PABT 172339Z 1800/1824  35006KT P6SM VCSH SCT050 OVC080
     FM180400 33005KT 5SM -SN BR BKN025 OVC050
     FM181500 VRB03KT 4SM -SHSN BR SCT025 OVC050
     FM181800 01003KT P6SM BKN100=

3003
FTAK31 PAFA 172339
TAFAQT
TAF
METAR PABT 171953Z 03006KT 10SM VCFG FEW055 BKN080 M12/M15 A2946 RMK AO2
     SLP994 FGBANK VC NE-SE T11221150=

METAR PABT 172053Z 01005KT 10SM FEW018 FEW055 OVC080 M11/M14 A2944 RMK
     AO2 SLP988 T11111139 58009=

METAR PABT 172153Z 02003KT 10SM FEW018 FEW055 OVC080 M09/M13 A2944 RMK
     AO2 SLP988 T10941128=

METAR PABT 172253Z 01005KT 10SM FEW055 OVC080 M09/M12 A2944 RMK AO2
     SLP986 SHSN VC SW-W T10891122=

METAR PABT 172353Z 35004KT 10SM FEW055 BKN075 OVC095 M08/M12 A2942 RMK
     AO2 SLP982 4/003 T10831117 11083 21156 58006=


NOAA's National Weather Service
Alaska Aviation Weather Unit
6930 Sand Lake Road
Anchorage, AK 99502-1845
Disclaimer
Credits
Glossary
Privacy Policy
About Us
Career Opportunities
Contact AAWU Internet Services Site last modified: April, 17th 2012